createdAt,value
2023-01-09T00:01:32.064Z,7.48
2023-01-09T00:03:59.060Z,7.41
2023-01-09T00:06:26.105Z,7.37
2023-01-09T00:08:53.364Z,7.33
2023-01-09T00:11:20.624Z,7.29
2023-01-09T00:13:47.603Z,7.26
2023-01-09T00:16:15.811Z,7.23
2023-01-09T00:18:42.991Z,7.20
2023-01-09T00:21:13.234Z,7.17
2023-01-09T00:23:40.944Z,7.14
2023-01-09T00:26:18.910Z,7.10
2023-01-09T00:28:47.880Z,7.06
2023-01-09T00:31:15.978Z,7.01
2023-01-09T00:33:48.755Z,6.96
2023-01-09T00:36:15.748Z,6.92
2023-01-09T00:38:42.745Z,6.88
2023-01-09T00:41:17.316Z,6.86
2023-01-09T00:43:51.258Z,6.84
2023-01-09T00:46:24.752Z,6.80
2023-01-09T00:48:52.097Z,6.79
2023-01-09T00:51:20.610Z,6.75
2023-01-09T00:53:49.480Z,6.69
2023-01-09T00:56:19.444Z,6.63
2023-01-09T00:58:48.140Z,6.55
2023-01-09T01:01:15.466Z,6.49
2023-01-09T01:03:42.539Z,6.42
2023-01-09T01:06:28.345Z,6.36
2023-01-09T01:08:56.006Z,6.27
2023-01-09T01:11:24.047Z,6.20
2023-01-09T01:13:51.653Z,6.16
2023-01-09T01:16:18.877Z,6.09
2023-01-09T01:18:46.079Z,6.05
2023-01-09T01:21:14.222Z,6.00
2023-01-09T01:23:42.262Z,5.96
2023-01-09T01:26:13.742Z,5.87
2023-01-09T01:28:41.297Z,5.84
2023-01-09T01:31:08.755Z,5.78
2023-01-09T01:33:36.335Z,5.72
2023-01-09T01:36:08.533Z,5.68
2023-01-09T01:38:36.812Z,5.63
2023-01-09T01:41:05.159Z,5.59
2023-01-09T01:43:57.233Z,5.52
2023-01-09T01:46:24.248Z,5.49
2023-01-09T01:49:03.585Z,5.46
2023-01-09T01:51:36.048Z,5.41
2023-01-09T01:54:11.192Z,5.38
2023-01-09T01:56:46.655Z,5.36
2023-01-09T01:59:26.200Z,5.34
2023-01-09T02:01:59.309Z,5.34
2023-01-09T02:04:28.916Z,5.30
2023-01-09T02:07:02.954Z,5.26
2023-01-09T02:09:29.985Z,5.21
2023-01-09T02:11:58.454Z,5.17
2023-01-09T02:14:31.978Z,5.13
2023-01-09T02:17:16.587Z,5.10
2023-01-09T02:20:16.571Z,5.06
2023-01-09T02:23:34.576Z,5.01
2023-01-09T02:26:53.053Z,4.96
2023-01-09T02:29:44.184Z,4.93
2023-01-09T02:32:39.967Z,4.88
2023-01-09T02:35:55.175Z,4.86
2023-01-09T02:39:03.679Z,4.82
2023-01-09T02:41:45.814Z,4.78
2023-01-09T02:44:30.168Z,4.73
2023-01-09T02:47:08.185Z,4.74
2023-01-09T02:49:39.915Z,4.71
2023-01-09T02:52:22.476Z,4.71
2023-01-09T02:54:58.403Z,4.67
2023-01-09T02:57:46.508Z,4.65
2023-01-09T03:00:44.312Z,4.63
2023-01-09T03:03:30.499Z,4.62
2023-01-09T03:06:15.780Z,4.61
2023-01-09T03:08:54.705Z,4.60
2023-01-09T03:11:22.250Z,4.56
2023-01-09T03:13:59.658Z,4.57
2023-01-09T03:16:37.942Z,4.56
2023-01-09T03:19:13.032Z,4.53
2023-01-09T03:21:42.212Z,4.52
2023-01-09T03:24:09.601Z,4.51
2023-01-09T03:26:37.004Z,4.50
2023-01-09T03:29:04.212Z,4.51
2023-01-09T03:31:31.190Z,4.51
2023-01-09T03:33:58.212Z,4.49
2023-01-09T03:36:25.963Z,4.48
2023-01-09T03:38:53.052Z,4.45
2023-01-09T03:41:20.192Z,4.44
2023-01-09T03:43:48.516Z,4.42
2023-01-09T03:46:17.197Z,4.43
2023-01-09T03:48:44.515Z,4.38
2023-01-09T03:51:11.512Z,4.37
2023-01-09T03:53:39.137Z,4.35
2023-01-09T03:56:06.636Z,4.35
2023-01-09T03:58:33.539Z,4.32
2023-01-09T04:01:04.192Z,4.31
2023-01-09T04:03:31.667Z,4.30
2023-01-09T04:05:58.745Z,4.31
2023-01-09T04:08:25.752Z,4.31
2023-01-09T04:10:52.826Z,4.29
2023-01-09T04:13:19.826Z,4.28
2023-01-09T04:15:47.032Z,4.26
2023-01-09T04:18:15.339Z,4.25
2023-01-09T04:20:42.732Z,4.25
2023-01-09T04:23:09.665Z,4.24
2023-01-09T04:25:36.663Z,4.27
2023-01-09T04:28:03.774Z,4.27
2023-01-09T04:30:30.782Z,4.28
2023-01-09T04:32:57.778Z,4.31
2023-01-09T04:35:24.980Z,4.37
2023-01-09T04:37:51.943Z,4.46
2023-01-09T04:40:19.535Z,4.56
2023-01-09T04:42:46.735Z,4.68
2023-01-09T04:45:15.762Z,4.77
2023-01-09T04:47:43.445Z,4.79
2023-01-09T04:50:12.672Z,4.81
2023-01-09T04:52:40.149Z,4.84
2023-01-09T04:55:09.067Z,4.86
2023-01-09T04:57:36.895Z,4.90
2023-01-09T05:00:09.830Z,4.96
2023-01-09T05:02:38.390Z,5.01
2023-01-09T05:05:08.559Z,5.07
2023-01-09T05:07:38.333Z,5.13
2023-01-09T05:10:07.341Z,5.20
2023-01-09T05:12:37.075Z,5.27
2023-01-09T05:15:06.745Z,5.35
2023-01-09T05:17:33.768Z,5.41
2023-01-09T05:20:03.722Z,5.45
2023-01-09T05:22:30.791Z,5.51
2023-01-09T05:25:00.281Z,5.55
2023-01-09T05:27:27.496Z,5.61
2023-01-09T05:29:54.447Z,5.64
2023-01-09T05:32:21.431Z,5.69
2023-01-09T05:34:48.478Z,5.71
2023-01-09T05:37:15.474Z,5.72
2023-01-09T05:39:42.456Z,5.77
2023-01-09T05:42:09.371Z,5.85
2023-01-09T05:44:36.309Z,5.93
2023-01-09T05:47:03.311Z,6.02
2023-01-09T05:49:30.265Z,6.13
2023-01-09T05:51:57.223Z,6.20
2023-01-09T05:54:24.226Z,6.26
2023-01-09T05:56:51.401Z,6.28
2023-01-09T05:59:18.621Z,6.33
2023-01-09T06:01:45.709Z,6.40
2023-01-09T06:04:12.732Z,6.48
2023-01-09T06:06:42.803Z,6.57
2023-01-09T06:09:09.838Z,6.62
2023-01-09T06:11:38.569Z,6.66
2023-01-09T06:14:07.066Z,6.72
2023-01-09T06:16:34.291Z,6.79
2023-01-09T06:19:01.332Z,6.79
2023-01-09T06:21:29.528Z,6.80
2023-01-09T06:23:56.727Z,6.73
2023-01-09T06:26:27.914Z,6.65
2023-01-09T06:28:56.103Z,6.57
2023-01-09T06:31:25.052Z,6.51
2023-01-09T06:33:52.459Z,6.48
2023-01-09T06:36:22.302Z,6.45
2023-01-09T06:38:49.714Z,6.42
2023-01-09T06:41:17.235Z,6.41
2023-01-09T06:43:44.659Z,6.40
2023-01-09T06:46:11.707Z,6.41
2023-01-09T06:48:38.758Z,6.42
2023-01-09T06:51:05.921Z,6.42
2023-01-09T06:53:33.203Z,6.44
2023-01-09T06:56:01.461Z,6.43
2023-01-09T06:58:28.919Z,6.46
2023-01-09T07:00:56.292Z,6.46
2023-01-09T07:03:23.396Z,6.48
2023-01-09T07:05:50.677Z,6.46
2023-01-09T07:08:17.748Z,6.46
2023-01-09T07:10:45.288Z,6.47
2023-01-09T07:13:12.289Z,6.48
2023-01-09T07:15:39.291Z,6.45
2023-01-09T07:18:06.317Z,6.47
2023-01-09T07:20:33.297Z,6.46
2023-01-09T07:23:00.220Z,6.44
2023-01-09T07:25:27.241Z,6.44
2023-01-09T07:27:54.255Z,6.44
2023-01-09T07:30:21.260Z,6.45
2023-01-09T07:32:48.296Z,6.45
2023-01-09T07:35:15.413Z,6.47
2023-01-09T07:37:42.438Z,6.49
2023-01-09T07:40:10.394Z,6.51
2023-01-09T07:42:37.432Z,6.53
2023-01-09T07:45:06.310Z,6.55
2023-01-09T07:47:33.369Z,6.59
2023-01-09T07:50:00.450Z,6.60
2023-01-09T07:52:27.975Z,6.61
2023-01-09T07:54:54.955Z,6.63
2023-01-09T07:57:23.392Z,6.64
2023-01-09T07:59:50.448Z,6.66
2023-01-09T08:02:18.328Z,6.72
2023-01-09T08:04:45.428Z,6.72
2023-01-09T08:07:12.626Z,6.71
2023-01-09T08:09:39.616Z,6.74
2023-01-09T08:12:06.671Z,6.74
2023-01-09T08:14:33.680Z,6.75
2023-01-09T08:17:00.704Z,6.75
2023-01-09T08:19:27.708Z,6.76
2023-01-09T08:21:54.619Z,6.76
2023-01-09T08:24:21.585Z,6.75
2023-01-09T08:26:48.501Z,6.77
2023-01-09T08:29:15.495Z,6.79
2023-01-09T08:31:42.592Z,6.79
2023-01-09T08:34:09.668Z,6.81
2023-01-09T08:36:36.696Z,6.83
2023-01-09T08:39:03.687Z,6.84
2023-01-09T08:41:49.295Z,6.88
2023-01-09T08:44:34.593Z,6.89
2023-01-09T08:47:07.680Z,6.92
2023-01-09T08:49:37.802Z,6.96
2023-01-09T08:52:07.307Z,7.01
2023-01-09T08:54:36.900Z,7.05
2023-01-09T08:57:04.009Z,7.07
2023-01-09T08:59:30.998Z,7.08
2023-01-09T09:01:58.450Z,7.12
2023-01-09T09:04:25.844Z,7.11
2023-01-09T09:06:52.808Z,7.17
2023-01-09T09:09:19.779Z,7.24
2023-01-09T09:11:46.799Z,7.35
2023-01-09T09:14:32.608Z,7.46
2023-01-09T09:16:59.541Z,7.52
2023-01-09T09:19:26.569Z,7.53
2023-01-09T09:21:53.509Z,7.52
2023-01-09T09:24:20.557Z,7.49
2023-01-09T09:26:47.540Z,7.47
2023-01-09T09:29:14.770Z,7.44
2023-01-09T09:31:41.895Z,7.44
2023-01-09T09:34:08.920Z,7.46
2023-01-09T09:36:36.022Z,7.50
2023-01-09T09:39:03.602Z,7.55
2023-01-09T09:42:07.338Z,7.58
2023-01-09T09:45:02.110Z,7.62
2023-01-09T09:47:49.018Z,7.66
2023-01-09T09:50:47.103Z,7.59
2023-01-09T09:53:41.997Z,7.53
2023-01-09T09:56:16.595Z,7.51
2023-01-09T09:58:54.111Z,7.53
2023-01-09T10:01:36.479Z,7.61
2023-01-09T10:04:12.104Z,7.82
2023-01-09T10:06:50.234Z,7.93
2023-01-09T10:09:37.127Z,7.91
2023-01-09T10:12:17.160Z,7.86
2023-01-09T10:14:44.356Z,7.85
2023-01-09T10:17:38.934Z,7.89
2023-01-09T10:21:04.212Z,7.96
2023-01-09T10:23:46.061Z,7.96
2023-01-09T10:26:45.400Z,7.99
2023-01-09T10:29:42.810Z,8.00
2023-01-09T10:32:35.037Z,8.06
2023-01-09T10:35:52.708Z,8.13
2023-01-09T10:38:35.451Z,8.12
2023-01-09T10:41:30.217Z,8.16
2023-01-09T10:44:08.192Z,8.14
2023-01-09T10:46:45.571Z,8.11
2023-01-09T10:49:24.175Z,8.09
2023-01-09T10:52:16.737Z,8.12
2023-01-09T10:55:02.363Z,8.10
2023-01-09T10:57:45.853Z,8.07
2023-01-09T11:00:23.237Z,8.09
2023-01-09T11:02:53.220Z,8.13
2023-01-09T11:05:32.719Z,8.07
2023-01-09T11:08:11.383Z,8.03
2023-01-09T11:10:48.546Z,8.06
2023-01-09T11:13:31.970Z,8.21
2023-01-09T11:16:21.447Z,8.32
2023-01-09T11:19:00.899Z,8.34
2023-01-09T11:21:32.550Z,8.30
2023-01-09T11:24:21.396Z,8.24
2023-01-09T11:27:13.865Z,8.19
2023-01-09T11:29:42.671Z,8.20
2023-01-09T11:32:30.683Z,8.16
2023-01-09T11:34:58.006Z,8.17
2023-01-09T11:37:30.356Z,8.25
2023-01-09T11:40:01.009Z,8.36
2023-01-09T11:42:48.373Z,8.35
2023-01-09T11:45:36.154Z,8.36
2023-01-09T11:48:28.763Z,8.36
2023-01-09T11:50:59.653Z,8.43
2023-01-09T11:53:28.393Z,8.51
2023-01-09T11:56:02.221Z,8.62
2023-01-09T11:58:35.118Z,8.75
2023-01-09T12:01:47.821Z,8.84
2023-01-09T12:04:33.832Z,9.01
2023-01-09T12:07:06.426Z,9.05
2023-01-09T12:09:51.857Z,9.10
2023-01-09T12:12:49.226Z,9.11
2023-01-09T12:15:29.872Z,9.01
2023-01-09T12:18:10.818Z,8.98
2023-01-09T12:21:32.136Z,8.90
2023-01-09T12:24:36.512Z,8.82
2023-01-09T12:27:21.729Z,8.69
2023-01-09T12:30:54.572Z,8.63
2023-01-09T12:33:45.318Z,8.66
2023-01-09T12:37:04.842Z,8.68
2023-01-09T12:40:33.874Z,8.59
2023-01-09T12:43:39.284Z,8.60
2023-01-09T12:46:18.024Z,8.64
2023-01-09T12:49:02.921Z,8.67
2023-01-09T12:52:07.089Z,8.65
2023-01-09T12:54:56.760Z,8.66
2023-01-09T12:57:38.871Z,8.60
2023-01-09T13:00:25.616Z,8.54
2023-01-09T13:03:13.303Z,8.46
2023-01-09T13:05:49.858Z,8.38
2023-01-09T13:08:36.377Z,8.38
2023-01-09T13:11:20.317Z,8.60
2023-01-09T13:14:10.323Z,8.73
2023-01-09T13:16:44.842Z,8.82
2023-01-09T13:19:40.776Z,8.88
2023-01-09T13:22:08.254Z,8.84
2023-01-09T13:24:53.769Z,8.79
2023-01-09T13:27:26.875Z,8.76
2023-01-09T13:30:46.943Z,8.70
2023-01-09T13:33:29.057Z,8.55
2023-01-09T13:35:59.695Z,8.37
2023-01-09T13:38:31.370Z,8.15
2023-01-09T13:41:31.555Z,7.89
2023-01-09T13:44:07.350Z,7.66
2023-01-09T13:46:50.590Z,7.46
2023-01-09T13:49:42.388Z,7.20
2023-01-09T13:52:30.816Z,7.02
2023-01-09T13:55:00.866Z,6.94
2023-01-09T13:57:29.504Z,7.03
2023-01-09T14:00:19.506Z,7.10
2023-01-09T14:02:49.907Z,7.12
2023-01-09T14:05:25.800Z,7.21
2023-01-09T14:08:06.983Z,7.30
2023-01-09T14:10:47.641Z,7.37
2023-01-09T14:13:22.085Z,7.42
2023-01-09T14:15:52.165Z,7.54
2023-01-09T14:18:31.463Z,7.72
2023-01-09T14:21:09.856Z,7.80
2023-01-09T14:23:52.876Z,7.81
2023-01-09T14:26:49.115Z,7.85
2023-01-09T14:29:34.184Z,7.83
2023-01-09T14:32:23.277Z,7.79
2023-01-09T14:34:58.008Z,7.78
2023-01-09T14:37:28.592Z,7.80
2023-01-09T14:39:57.017Z,7.85
2023-01-09T14:42:30.587Z,7.87
2023-01-09T14:45:06.180Z,7.89
2023-01-09T14:47:54.737Z,7.87
2023-01-09T14:50:45.578Z,7.87
2023-01-09T14:53:31.252Z,7.86
2023-01-09T14:56:06.641Z,7.82
2023-01-09T14:58:38.474Z,7.82
2023-01-09T15:01:22.849Z,7.78
2023-01-09T15:03:59.052Z,7.75
2023-01-09T15:06:42.980Z,7.73
2023-01-09T15:09:45.493Z,7.73
2023-01-09T15:12:24.329Z,7.73
2023-01-09T15:14:57.899Z,7.72
2023-01-09T15:17:32.277Z,7.71
2023-01-09T15:20:05.083Z,7.69
2023-01-09T15:22:36.701Z,7.65
2023-01-09T15:25:39.672Z,7.61
2023-01-09T15:28:25.235Z,7.56
2023-01-09T15:31:11.861Z,7.48
2023-01-09T15:33:42.141Z,7.40
2023-01-09T15:36:24.922Z,7.37
2023-01-09T15:38:53.920Z,7.31
2023-01-09T15:41:48.405Z,7.35
2023-01-09T15:44:20.955Z,7.32
2023-01-09T15:46:50.397Z,7.33
2023-01-09T15:49:19.842Z,7.34
2023-01-09T15:51:48.939Z,7.30
2023-01-09T15:54:32.716Z,7.25
2023-01-09T15:57:34.151Z,7.24
2023-01-09T16:00:41.511Z,7.21
2023-01-09T16:03:20.291Z,7.17
2023-01-09T16:06:10.703Z,7.04
2023-01-09T16:08:52.194Z,6.83
2023-01-09T16:11:28.954Z,6.72
2023-01-09T16:14:01.792Z,6.63
2023-01-09T16:16:33.654Z,6.61
2023-01-09T16:19:00.875Z,6.57
2023-01-09T16:21:38.223Z,6.52
2023-01-09T16:24:14.259Z,6.50
2023-01-09T16:26:41.245Z,6.47
2023-01-09T16:29:33.878Z,6.40
2023-01-09T16:32:04.365Z,6.32
2023-01-09T16:34:34.019Z,6.27
2023-01-09T16:37:02.907Z,6.21
2023-01-09T16:39:30.062Z,6.14
2023-01-09T16:42:23.694Z,6.08
2023-01-09T16:44:50.626Z,6.03
2023-01-09T16:47:17.616Z,6.00
2023-01-09T16:49:44.585Z,5.98
2023-01-09T16:52:20.775Z,5.96
2023-01-09T16:54:47.821Z,5.91
2023-01-09T16:57:18.878Z,5.88
2023-01-09T16:59:46.579Z,5.89
2023-01-09T17:02:20.377Z,5.93
2023-01-09T17:04:47.623Z,5.98
2023-01-09T17:07:17.291Z,6.05
2023-01-09T17:09:45.684Z,6.06
2023-01-09T17:12:27.319Z,6.11
2023-01-09T17:14:54.307Z,6.13
2023-01-09T17:17:21.695Z,6.15
2023-01-09T17:19:49.172Z,6.19
2023-01-09T17:22:16.315Z,6.21
2023-01-09T17:25:02.157Z,6.22
2023-01-09T17:27:55.677Z,6.21
2023-01-09T17:30:22.928Z,6.23
2023-01-09T17:32:49.946Z,6.23
2023-01-09T17:35:17.479Z,6.23
2023-01-09T17:37:44.670Z,6.23
2023-01-09T17:40:19.744Z,6.24
2023-01-09T17:42:46.835Z,6.21
2023-01-09T17:45:14.484Z,6.19
2023-01-09T17:47:41.600Z,6.17
2023-01-09T17:50:19.810Z,6.15
2023-01-09T17:52:48.658Z,6.16
2023-01-09T17:55:15.778Z,6.15
2023-01-09T17:57:43.533Z,6.17
2023-01-09T18:00:36.623Z,6.20
2023-01-09T18:03:05.288Z,6.20
2023-01-09T18:05:32.268Z,6.24
2023-01-09T18:07:59.800Z,6.24
2023-01-09T18:10:30.208Z,6.28
2023-01-09T18:12:57.292Z,6.29
2023-01-09T18:15:24.525Z,6.30
2023-01-09T18:17:52.388Z,6.32
2023-01-09T18:20:19.868Z,6.33
2023-01-09T18:22:47.632Z,6.32
2023-01-09T18:25:17.459Z,6.32
2023-01-09T18:27:44.532Z,6.32
2023-01-09T18:30:12.281Z,6.34
2023-01-09T18:32:40.106Z,6.37
2023-01-09T18:35:08.847Z,6.40
2023-01-09T18:37:37.062Z,6.40
2023-01-09T18:40:05.509Z,6.36
2023-01-09T18:42:33.540Z,6.37
2023-01-09T18:45:00.510Z,6.39
2023-01-09T18:47:27.512Z,6.41
2023-01-09T18:49:54.535Z,6.44
2023-01-09T18:52:21.535Z,6.45
2023-01-09T18:54:48.463Z,6.46
2023-01-09T18:57:15.469Z,6.43
2023-01-09T18:59:42.507Z,6.39
2023-01-09T19:02:21.805Z,6.37
2023-01-09T19:04:49.337Z,6.35
2023-01-09T19:07:16.727Z,6.35
2023-01-09T19:09:44.790Z,6.34
2023-01-09T19:12:12.265Z,6.34
2023-01-09T19:14:39.282Z,6.34
2023-01-09T19:17:08.429Z,6.35
2023-01-09T19:19:35.516Z,6.36
2023-01-09T19:22:02.529Z,6.35
2023-01-09T19:24:31.497Z,6.37
2023-01-09T19:27:00.293Z,6.37
2023-01-09T19:29:28.125Z,6.38
2023-01-09T19:31:55.276Z,6.35
2023-01-09T19:34:22.421Z,6.35
2023-01-09T19:36:50.326Z,6.34
2023-01-09T19:39:17.658Z,6.32
2023-01-09T19:41:44.736Z,6.29
2023-01-09T19:44:11.823Z,6.26
2023-01-09T19:46:38.896Z,6.24
2023-01-09T19:49:06.131Z,6.19
2023-01-09T19:51:33.987Z,6.17
2023-01-09T19:56:40.555Z,6.02
2023-01-09T19:59:08.205Z,5.94
2023-01-09T20:01:39.647Z,5.85
2023-01-09T20:04:13.643Z,5.78
2023-01-09T20:06:47.709Z,5.74
2023-01-09T20:09:24.696Z,5.73
2023-01-09T20:11:51.724Z,5.70
2023-01-09T20:14:19.386Z,5.73
2023-01-09T20:16:48.495Z,5.72
2023-01-09T20:19:16.393Z,5.72
2023-01-09T20:21:43.765Z,5.69
2023-01-09T20:24:15.051Z,5.69
2023-01-09T20:26:42.557Z,5.71
2023-01-09T20:29:09.540Z,5.72
2023-01-09T20:31:39.046Z,5.73
2023-01-09T20:34:06.242Z,5.69
2023-01-09T20:36:34.811Z,5.64
2023-01-09T20:39:06.177Z,5.56
2023-01-09T20:41:36.673Z,5.50
2023-01-09T20:44:12.240Z,5.54
2023-01-09T20:46:42.828Z,5.58
2023-01-09T20:49:13.767Z,5.62
2023-01-09T20:51:50.550Z,5.67
2023-01-09T20:54:21.535Z,5.69
2023-01-09T20:56:48.689Z,5.69
2023-01-09T20:59:22.780Z,5.68
2023-01-09T21:01:52.366Z,5.62
2023-01-09T21:04:19.680Z,5.56
2023-01-09T21:06:49.635Z,5.51
2023-01-09T21:09:17.687Z,5.46
2023-01-09T21:11:44.730Z,5.39
2023-01-09T21:14:11.827Z,5.33
2023-01-09T21:16:38.903Z,5.25
2023-01-09T21:19:05.980Z,5.19
2023-01-09T21:21:32.924Z,5.15
2023-01-09T21:24:00.931Z,5.13
2023-01-09T21:26:30.650Z,5.10
2023-01-09T21:29:01.591Z,5.08
2023-01-09T21:31:36.178Z,5.03
2023-01-09T21:34:07.042Z,5.01
2023-01-09T21:36:35.427Z,5.00
2023-01-09T21:39:07.453Z,4.97
2023-01-09T21:41:54.142Z,4.93
2023-01-09T21:44:39.897Z,4.87
2023-01-09T21:47:06.915Z,4.81
2023-01-09T21:49:36.677Z,4.77
2023-01-09T21:52:04.561Z,4.75
2023-01-09T21:54:32.603Z,4.71
2023-01-09T21:56:59.912Z,4.71
2023-01-09T21:59:29.061Z,4.69
2023-01-09T22:01:56.456Z,4.68
2023-01-09T22:04:28.223Z,4.68
2023-01-09T22:06:55.544Z,4.65
2023-01-09T22:09:23.194Z,4.63
2023-01-09T22:11:50.123Z,4.63
2023-01-09T22:14:19.454Z,4.63
2023-01-09T22:16:47.502Z,4.58
2023-01-09T22:19:18.413Z,4.56
2023-01-09T22:21:46.000Z,4.55
2023-01-09T22:24:16.511Z,4.54
2023-01-09T22:26:44.042Z,4.50
2023-01-09T22:29:11.041Z,4.52
2023-01-09T22:31:39.994Z,4.49
2023-01-09T22:34:07.419Z,4.47
2023-01-09T22:36:34.573Z,4.46
2023-01-09T22:39:01.941Z,4.47
2023-01-09T22:41:30.534Z,4.53
2023-01-09T22:43:59.084Z,4.60
2023-01-09T22:46:26.507Z,4.62
2023-01-09T22:48:53.461Z,4.60
2023-01-09T22:51:21.880Z,4.56
2023-01-09T22:53:51.174Z,4.53
2023-01-09T22:56:22.089Z,4.53
2023-01-09T22:58:54.498Z,4.56
2023-01-09T23:01:22.819Z,4.62
2023-01-09T23:03:50.349Z,4.65
2023-01-09T23:06:21.348Z,4.67
2023-01-09T23:08:50.971Z,4.68
2023-01-09T23:11:45.412Z,4.65
2023-01-09T23:14:13.236Z,4.58
2023-01-09T23:16:41.887Z,4.56
2023-01-09T23:19:09.904Z,4.54
2023-01-09T23:21:37.524Z,4.56
2023-01-09T23:24:07.062Z,4.62
2023-01-09T23:26:35.715Z,4.69
2023-01-09T23:29:06.969Z,4.73
2023-01-09T23:31:34.874Z,4.76
2023-01-09T23:34:03.364Z,4.81
2023-01-09T23:36:30.733Z,4.91
2023-01-09T23:38:59.549Z,5.00
2023-01-09T23:41:45.669Z,5.08
2023-01-09T23:44:12.680Z,5.16
2023-01-09T23:46:39.635Z,5.23
2023-01-09T23:49:06.623Z,5.28
2023-01-09T23:51:33.609Z,5.27
2023-01-09T23:54:00.689Z,5.24
2023-01-09T23:56:30.574Z,5.22
2023-01-09T23:58:58.423Z,5.19
